Flight Briefing for CPX715

Departure Arrival
Miami International Airport (KMIA)
Click to view FAA NOTAMS
José María Córdova International Airport (SKRG)
Click to view FAA NOTAMS
Departure Time Arrival Time
0945 UTC 1315 UTC
Aircraft Distance
B767-300BDSF 1226nm
Departure METAR Arrival METAR
KMIA 260953Z 29003KT 10SM FEW020 21/17 A3000 RMK AO2 SLP160 T02060172 SKRG 261030Z VRB02KT 3000 BR BKN007 SCT070 15/15 A3024
Suggested Route
EONNS2 EONNS A509 URSUS UA301 UCA UG430 BEREX UG430 KILER UQ121 AKPEK AKPE1C


View recent IFR Routes data
Notes



Charts and Procedures

Charts for KMIA
No chart available
Charts for SKRG
No chart available

Windy.com Weather Map